createdAt,value
2019-04-30T00:01:18.929Z,15.42
2019-04-30T00:03:55.794Z,15.41
2019-04-30T00:06:22.171Z,15.47
2019-04-30T00:08:49.566Z,15.83
2019-04-30T00:11:19.480Z,15.86
2019-04-30T00:13:50.150Z,15.91
2019-04-30T00:16:16.084Z,16.02
2019-04-30T00:18:57.090Z,16.03
2019-04-30T00:21:15.174Z,16.02
2019-04-30T00:23:42.412Z,16.03
2019-04-30T00:26:10.481Z,16.02
2019-04-30T00:28:39.437Z,15.87
2019-04-30T00:31:07.560Z,15.66
2019-04-30T00:33:35.350Z,15.84
2019-04-30T00:36:05.011Z,15.67
2019-04-30T00:38:34.345Z,15.57
2019-04-30T00:41:06.131Z,15.34
2019-04-30T00:43:31.463Z,15.20
2019-04-30T00:45:58.935Z,14.98
2019-04-30T00:48:29.738Z,14.79
2019-04-30T00:50:55.889Z,14.43
2019-04-30T00:53:23.349Z,14.49
2019-04-30T00:55:50.819Z,14.37
2019-04-30T00:58:24.928Z,14.33
2019-04-30T01:01:04.123Z,14.26
2019-04-30T01:03:30.774Z,14.19
2019-04-30T01:05:58.163Z,14.06
2019-04-30T01:08:28.466Z,13.96
2019-04-30T01:10:55.608Z,13.91
2019-04-30T01:13:23.259Z,13.84
2019-04-30T01:15:52.469Z,13.65
2019-04-30T01:18:23.566Z,13.50
2019-04-30T01:20:49.467Z,13.44
2019-04-30T01:23:16.964Z,13.54
2019-04-30T01:25:49.967Z,13.63
2019-04-30T01:28:16.293Z,13.63
2019-04-30T01:30:44.099Z,13.52
2019-04-30T01:33:11.889Z,13.37
2019-04-30T01:35:40.626Z,13.36
2019-04-30T01:38:11.608Z,13.25
2019-04-30T01:40:42.896Z,13.25
2019-04-30T01:43:11.238Z,13.21
2019-04-30T01:45:38.777Z,13.15
2019-04-30T01:48:10.757Z,13.39
2019-04-30T01:50:38.671Z,13.52
2019-04-30T01:53:11.534Z,13.62
2019-04-30T01:55:46.744Z,13.64
2019-04-30T01:58:40.438Z,13.76
2019-04-30T02:01:12.660Z,13.51
2019-04-30T02:03:40.223Z,13.68
2019-04-30T02:06:09.138Z,13.47
2019-04-30T02:08:36.979Z,13.74
2019-04-30T02:11:04.508Z,13.65
2019-04-30T02:13:34.480Z,13.59
2019-04-30T02:16:01.252Z,13.34
2019-04-30T02:18:29.634Z,13.41
2019-04-30T02:20:59.326Z,13.62
2019-04-30T02:23:26.698Z,13.69
2019-04-30T02:25:54.120Z,13.64
2019-04-30T02:28:21.525Z,13.62
2019-04-30T02:30:50.358Z,13.46
2019-04-30T02:33:19.812Z,13.42
2019-04-30T02:36:19.701Z,13.41
2019-04-30T02:38:50.103Z,13.51
2019-04-30T02:41:20.108Z,13.39
2019-04-30T02:43:50.949Z,13.31
2019-04-30T02:46:20.826Z,13.38
2019-04-30T02:48:50.409Z,13.25
2019-04-30T02:51:22.830Z,13.27
2019-04-30T02:54:24.098Z,13.09
2019-04-30T02:57:00.503Z,13.28
2019-04-30T02:59:30.005Z,13.23
2019-04-30T03:01:59.785Z,13.13
2019-04-30T03:04:29.235Z,12.97
2019-04-30T03:06:55.986Z,12.89
2019-04-30T03:09:23.432Z,12.72
2019-04-30T03:11:50.890Z,12.49
2019-04-30T03:14:20.051Z,12.21
2019-04-30T03:17:09.966Z,12.05
2019-04-30T03:19:44.708Z,12.01
2019-04-30T03:22:20.155Z,11.85
2019-04-30T03:24:49.818Z,11.75
2019-04-30T03:27:16.363Z,11.68
2019-04-30T03:29:43.805Z,11.73
2019-04-30T03:32:13.358Z,11.85
2019-04-30T03:34:42.061Z,11.91
2019-04-30T03:37:10.183Z,11.98
2019-04-30T03:39:40.051Z,11.97
2019-04-30T03:42:09.786Z,12.05
2019-04-30T03:44:39.702Z,12.03
2019-04-30T03:47:05.822Z,12.31
2019-04-30T03:49:33.260Z,12.31
2019-04-30T03:52:00.732Z,12.42
2019-04-30T03:54:29.305Z,12.33
2019-04-30T03:57:00.685Z,12.42
2019-04-30T03:59:30.117Z,12.37
2019-04-30T04:02:30.204Z,12.35
2019-04-30T04:05:20.365Z,12.54
2019-04-30T04:08:05.929Z,12.63
2019-04-30T04:11:01.630Z,12.73
2019-04-30T04:13:30.094Z,12.85
2019-04-30T04:15:59.955Z,13.02
2019-04-30T04:18:30.059Z,13.10
2019-04-30T04:21:08.753Z,13.29
2019-04-30T04:23:26.184Z,13.46
2019-04-30T04:25:53.648Z,13.30
2019-04-30T04:28:21.126Z,13.61
2019-04-30T04:30:50.537Z,13.48
2019-04-30T04:33:19.968Z,13.86
2019-04-30T04:35:49.782Z,14.01
2019-04-30T04:38:16.748Z,13.82
2019-04-30T04:40:44.165Z,13.71
2019-04-30T04:43:11.780Z,13.78
2019-04-30T04:45:43.385Z,14.10
2019-04-30T04:48:09.587Z,14.14
2019-04-30T04:50:39.790Z,14.37
2019-04-30T04:53:08.913Z,14.54
2019-04-30T04:55:35.934Z,14.80
2019-04-30T04:58:03.462Z,14.99
2019-04-30T05:00:30.910Z,15.07
2019-04-30T05:03:26.921Z,14.83
2019-04-30T05:05:54.364Z,15.09
2019-04-30T05:08:21.784Z,15.07
2019-04-30T05:10:49.563Z,15.44
2019-04-30T05:13:19.072Z,15.45
2019-04-30T05:15:46.432Z,15.54
2019-04-30T05:18:13.856Z,15.62
2019-04-30T05:20:41.747Z,15.54
2019-04-30T05:23:09.507Z,15.80
2019-04-30T05:25:36.941Z,16.12
2019-04-30T05:28:04.484Z,16.34
2019-04-30T05:30:31.965Z,16.28
2019-04-30T05:32:59.444Z,16.09
2019-04-30T05:35:28.724Z,16.48
2019-04-30T05:37:56.252Z,16.93
2019-04-30T05:40:24.158Z,16.75
2019-04-30T05:42:51.550Z,16.46
2019-04-30T05:45:19.446Z,16.15
2019-04-30T05:47:50.202Z,16.02
2019-04-30T05:50:16.360Z,16.09
2019-04-30T05:52:43.798Z,16.27
2019-04-30T05:55:11.562Z,16.37
2019-04-30T05:57:47.223Z,16.12
2019-04-30T06:00:09.912Z,15.73
2019-04-30T06:02:39.892Z,15.81
2019-04-30T06:05:08.805Z,15.81
2019-04-30T06:07:36.555Z,15.70
2019-04-30T06:10:20.504Z,15.85
2019-04-30T06:13:09.474Z,16.26
2019-04-30T06:15:45.133Z,16.57
2019-04-30T06:18:14.040Z,16.72
2019-04-30T06:20:41.630Z,16.99
2019-04-30T06:23:09.725Z,17.29
2019-04-30T06:25:55.610Z,17.63
2019-04-30T06:28:07.140Z,17.35
2019-04-30T06:30:35.014Z,17.09
2019-04-30T06:33:02.887Z,16.93
2019-04-30T06:35:30.536Z,16.96
2019-04-30T06:37:59.026Z,16.70
2019-04-30T06:40:29.143Z,17.06
2019-04-30T06:43:00.405Z,16.98
2019-04-30T06:45:28.991Z,17.05
2019-04-30T06:47:59.258Z,17.16
2019-04-30T06:50:26.703Z,17.60
2019-04-30T06:52:58.619Z,18.03
2019-04-30T06:55:23.637Z,18.05
2019-04-30T06:57:51.140Z,18.03
2019-04-30T07:00:32.699Z,17.65
2019-04-30T07:02:49.861Z,17.69
2019-04-30T07:05:18.584Z,17.42
2019-04-30T07:08:09.302Z,17.12
2019-04-30T07:10:35.323Z,17.06
2019-04-30T07:13:18.778Z,16.77
2019-04-30T07:15:46.495Z,16.46
2019-04-30T07:18:14.024Z,16.21
2019-04-30T07:20:41.441Z,16.10
2019-04-30T07:23:09.376Z,15.83
2019-04-30T07:25:38.942Z,15.89
2019-04-30T07:28:06.473Z,16.06
2019-04-30T07:30:34.118Z,16.12
2019-04-30T07:33:01.620Z,15.84
2019-04-30T07:35:29.325Z,15.77
2019-04-30T07:38:00.659Z,15.79
2019-04-30T07:40:26.230Z,15.84
2019-04-30T07:42:53.664Z,15.73
2019-04-30T07:45:25.433Z,15.74
2019-04-30T07:47:50.458Z,15.75
2019-04-30T07:50:20.565Z,15.90
2019-04-30T07:52:58.864Z,16.04
2019-04-30T07:55:16.727Z,16.07
2019-04-30T07:57:44.148Z,16.08
2019-04-30T08:00:12.540Z,15.97
2019-04-30T08:02:46.064Z,16.18
2019-04-30T08:05:20.280Z,16.24
2019-04-30T08:07:48.959Z,16.44
2019-04-30T08:10:18.799Z,16.69
2019-04-30T08:12:46.784Z,16.66
2019-04-30T08:15:15.199Z,16.59
2019-04-30T08:17:42.573Z,16.51
2019-04-30T08:20:10.112Z,16.70
2019-04-30T08:22:40.881Z,16.72
2019-04-30T08:25:06.967Z,16.76
2019-04-30T08:27:34.388Z,17.01
2019-04-30T08:30:01.854Z,17.39
2019-04-30T08:32:29.260Z,17.77
2019-04-30T08:34:56.700Z,17.96
2019-04-30T08:37:24.112Z,18.15
2019-04-30T08:39:51.536Z,18.31
2019-04-30T08:42:30.982Z,18.43
2019-04-30T08:44:48.575Z,18.58
2019-04-30T08:47:16.107Z,18.64
2019-04-30T08:49:43.926Z,18.25
2019-04-30T08:52:12.126Z,18.14
2019-04-30T08:54:39.680Z,18.33
2019-04-30T08:57:08.591Z,18.84
2019-04-30T08:59:36.259Z,19.17
2019-04-30T09:02:13.679Z,19.69
2019-04-30T09:04:33.220Z,19.94
2019-04-30T09:07:00.670Z,20.10
2019-04-30T09:09:29.534Z,19.98
2019-04-30T09:11:59.184Z,19.98
2019-04-30T09:14:26.777Z,20.12
2019-04-30T09:16:54.229Z,19.85
2019-04-30T09:19:21.642Z,20.04
2019-04-30T09:21:49.115Z,19.66
2019-04-30T09:24:16.602Z,19.41
2019-04-30T09:26:43.985Z,19.34
2019-04-30T09:29:11.588Z,19.52
2019-04-30T09:31:40.975Z,19.20
2019-04-30T09:34:15.292Z,18.85
2019-04-30T09:36:39.124Z,18.33
2019-04-30T09:39:08.923Z,18.60
2019-04-30T09:41:37.108Z,19.35
2019-04-30T09:44:05.048Z,19.58
2019-04-30T09:46:32.514Z,18.50
2019-04-30T09:48:59.986Z,18.16
2019-04-30T09:51:29.903Z,17.64
2019-04-30T09:54:00.636Z,16.75
2019-04-30T09:56:26.301Z,15.75
2019-04-30T09:58:53.732Z,15.08
2019-04-30T10:01:22.150Z,14.58
2019-04-30T10:03:50.541Z,14.62
2019-04-30T10:06:19.006Z,14.48
2019-04-30T10:08:50.564Z,14.34
2019-04-30T10:11:53.764Z,14.13
2019-04-30T10:14:21.263Z,14.14
2019-04-30T10:17:02.813Z,13.79
2019-04-30T10:19:30.374Z,13.88
2019-04-30T10:21:58.978Z,14.01
2019-04-30T10:24:26.568Z,14.43
2019-04-30T10:26:53.994Z,14.83
2019-04-30T10:29:21.568Z,14.93
2019-04-30T10:31:49.080Z,15.29
2019-04-30T10:34:16.652Z,15.13
2019-04-30T10:36:44.129Z,15.42
2019-04-30T10:39:12.071Z,15.30
2019-04-30T10:41:39.616Z,15.37
2019-04-30T10:44:08.900Z,15.40
2019-04-30T10:46:37.901Z,15.32
2019-04-30T10:49:05.370Z,15.28
2019-04-30T10:51:33.039Z,14.86
2019-04-30T10:54:00.507Z,14.95
2019-04-30T10:56:29.177Z,14.79
2019-04-30T10:58:56.650Z,15.31
2019-04-30T11:01:24.119Z,15.65
2019-04-30T11:03:51.513Z,15.83
2019-04-30T11:06:19.251Z,16.10
2019-04-30T11:08:46.985Z,16.60
2019-04-30T11:11:14.404Z,16.93
2019-04-30T11:13:41.891Z,16.62
2019-04-30T11:16:13.225Z,16.98
2019-04-30T11:18:39.069Z,17.06
2019-04-30T11:21:06.913Z,17.07
2019-04-30T11:23:34.717Z,16.84
2019-04-30T11:26:03.216Z,16.50
2019-04-30T11:28:31.345Z,16.25
2019-04-30T11:31:18.791Z,16.29
2019-04-30T11:33:46.933Z,16.48
2019-04-30T11:36:14.938Z,16.31
2019-04-30T11:38:42.533Z,16.10
2019-04-30T11:41:10.296Z,15.96
2019-04-30T11:43:39.422Z,15.95
2019-04-30T11:46:50.569Z,16.09
2019-04-30T11:49:17.993Z,16.05
2019-04-30T11:51:45.429Z,15.97
2019-04-30T11:54:12.862Z,16.07
2019-04-30T11:56:40.346Z,16.18
2019-04-30T11:59:08.702Z,16.15
2019-04-30T12:01:36.250Z,16.16
2019-04-30T12:04:04.204Z,16.25
2019-04-30T12:06:31.696Z,16.37
2019-04-30T12:09:09.247Z,16.62
2019-04-30T12:11:37.985Z,16.78
2019-04-30T12:14:05.605Z,16.76
2019-04-30T12:16:33.721Z,16.90
2019-04-30T12:19:01.542Z,17.09
2019-04-30T12:21:29.127Z,17.09
2019-04-30T12:23:56.642Z,17.02
2019-04-30T12:26:24.119Z,17.21
2019-04-30T12:28:51.552Z,17.39
2019-04-30T12:31:19.101Z,17.51
2019-04-30T12:33:46.548Z,17.84
2019-04-30T12:36:14.027Z,17.97
2019-04-30T12:38:41.424Z,18.07
2019-04-30T12:41:08.872Z,18.04
2019-04-30T12:43:36.311Z,18.13
2019-04-30T12:46:05.607Z,18.08
2019-04-30T12:48:41.631Z,18.45
2019-04-30T12:51:24.756Z,18.68
2019-04-30T12:53:57.554Z,18.61
2019-04-30T12:56:44.515Z,18.64
2019-04-30T12:59:11.998Z,19.23
2019-04-30T13:01:40.008Z,19.89
2019-04-30T13:04:09.653Z,20.09
2019-04-30T13:06:37.568Z,20.15
2019-04-30T13:09:10.949Z,20.18
2019-04-30T13:11:40.526Z,20.57
2019-04-30T13:14:10.159Z,20.77
2019-04-30T13:16:39.187Z,20.74
2019-04-30T13:19:06.690Z,20.96
2019-04-30T13:21:34.078Z,20.98
2019-04-30T13:24:01.623Z,21.01
2019-04-30T13:26:29.051Z,21.65
2019-04-30T13:29:04.034Z,21.59
2019-04-30T13:31:31.516Z,21.45
2019-04-30T13:34:18.570Z,21.46
2019-04-30T13:36:46.126Z,21.55
2019-04-30T13:39:19.575Z,21.51
2019-04-30T13:41:54.936Z,20.99
2019-04-30T13:44:29.459Z,21.26
2019-04-30T13:46:57.070Z,21.40
2019-04-30T13:49:24.760Z,21.55
2019-04-30T13:51:52.125Z,21.53
2019-04-30T13:54:19.579Z,21.75
2019-04-30T13:56:49.161Z,21.61
2019-04-30T13:59:16.658Z,21.69
2019-04-30T14:01:44.152Z,21.68
2019-04-30T14:04:18.415Z,21.74
2019-04-30T14:07:01.442Z,21.74
2019-04-30T14:09:30.019Z,21.90
2019-04-30T14:11:57.511Z,21.94
2019-04-30T14:14:24.958Z,22.00
2019-04-30T14:16:52.586Z,21.99
2019-04-30T14:19:20.250Z,21.92
2019-04-30T14:21:49.366Z,21.73
2019-04-30T14:24:19.147Z,21.81
2019-04-30T14:26:46.585Z,21.84
2019-04-30T14:29:14.031Z,21.94
2019-04-30T14:31:41.414Z,22.23
2019-04-30T14:34:10.096Z,22.26
2019-04-30T14:36:39.207Z,22.21
2019-04-30T14:39:14.461Z,22.22
2019-04-30T14:41:39.612Z,22.36
2019-04-30T14:44:14.565Z,22.34
2019-04-30T14:47:12.477Z,22.26
2019-04-30T14:50:14.649Z,22.26
2019-04-30T14:52:49.282Z,22.24
2019-04-30T14:55:34.574Z,21.34
2019-04-30T14:58:29.251Z,21.10
2019-04-30T15:01:14.911Z,20.24
2019-04-30T15:03:42.352Z,19.84
2019-04-30T15:06:11.076Z,19.97
2019-04-30T15:08:39.413Z,19.67
2019-04-30T15:11:09.110Z,19.37
2019-04-30T15:13:36.674Z,19.36
2019-04-30T15:16:04.299Z,19.08
2019-04-30T15:18:31.748Z,18.83
2019-04-30T15:20:59.546Z,18.35
2019-04-30T15:23:45.087Z,18.14
2019-04-30T15:26:22.055Z,18.31
2019-04-30T15:28:41.860Z,18.13
2019-04-30T15:31:09.211Z,18.19
2019-04-30T15:33:43.906Z,18.03
2019-04-30T15:36:11.355Z,18.02
2019-04-30T15:38:57.135Z,17.91
2019-04-30T15:41:25.212Z,18.13
2019-04-30T15:43:52.709Z,18.06
2019-04-30T15:46:20.171Z,17.83
2019-04-30T15:48:47.568Z,17.84
2019-04-30T15:51:15.562Z,17.84
2019-04-30T15:53:43.155Z,17.68
2019-04-30T15:56:10.565Z,17.95
2019-04-30T15:58:39.941Z,18.09
2019-04-30T16:01:09.149Z,17.91
2019-04-30T16:03:38.188Z,17.94
2019-04-30T16:06:05.544Z,17.96
2019-04-30T16:08:39.050Z,18.14
2019-04-30T16:11:16.155Z,17.93
2019-04-30T16:14:18.648Z,17.52
2019-04-30T16:16:57.220Z,17.16
2019-04-30T16:19:24.658Z,16.89
2019-04-30T16:21:52.105Z,16.60
2019-04-30T16:24:19.725Z,16.49
2019-04-30T16:26:52.075Z,16.33
2019-04-30T16:29:16.729Z,16.26
2019-04-30T16:31:44.247Z,16.21
2019-04-30T16:34:11.765Z,16.32
2019-04-30T16:36:39.198Z,16.28
2019-04-30T16:39:08.778Z,16.18
2019-04-30T16:41:36.295Z,16.06
2019-04-30T16:44:03.901Z,15.96
2019-04-30T16:46:31.541Z,15.78
2019-04-30T16:48:59.005Z,15.56
2019-04-30T16:51:28.678Z,15.35
2019-04-30T16:53:55.782Z,15.20
2019-04-30T16:56:23.263Z,15.18
2019-04-30T16:59:00.416Z,15.09
2019-04-30T17:01:28.885Z,14.91
2019-04-30T17:04:01.463Z,14.85
2019-04-30T17:06:30.450Z,14.66
2019-04-30T17:09:06.230Z,14.55
2019-04-30T17:11:51.547Z,14.51
2019-04-30T17:14:19.105Z,14.39
2019-04-30T17:16:48.895Z,14.24
2019-04-30T17:19:15.904Z,14.27
2019-04-30T17:21:43.338Z,14.24
2019-04-30T17:24:10.736Z,14.24
2019-04-30T17:26:40.097Z,14.22
2019-04-30T17:29:09.494Z,14.18
2019-04-30T17:31:36.950Z,14.18
2019-04-30T17:34:04.474Z,14.27
2019-04-30T17:36:31.947Z,14.22
2019-04-30T17:38:59.361Z,14.22
2019-04-30T17:41:26.910Z,14.23
2019-04-30T17:43:54.378Z,14.20
2019-04-30T17:46:21.857Z,14.11
2019-04-30T17:48:49.573Z,14.12
2019-04-30T17:51:17.120Z,14.20
2019-04-30T17:54:02.645Z,14.17
2019-04-30T17:56:30.072Z,14.27
2019-04-30T17:58:57.458Z,14.31
2019-04-30T18:01:25.290Z,14.28
2019-04-30T18:03:52.756Z,14.19
2019-04-30T18:06:20.174Z,14.33
2019-04-30T18:08:47.662Z,14.34
2019-04-30T18:11:15.212Z,14.25
2019-04-30T18:13:42.643Z,14.24
2019-04-30T18:16:10.181Z,14.26
2019-04-30T18:18:45.195Z,14.39
2019-04-30T18:21:23.429Z,14.41
2019-04-30T18:24:16.497Z,14.09
2019-04-30T18:26:51.722Z,13.50
2019-04-30T18:29:19.206Z,13.00
2019-04-30T18:31:46.785Z,12.84
2019-04-30T18:34:14.214Z,12.59
2019-04-30T18:36:41.648Z,12.47
2019-04-30T18:39:09.201Z,12.27
2019-04-30T18:41:36.666Z,12.24
2019-04-30T18:44:04.315Z,12.21
2019-04-30T18:46:31.740Z,12.31
2019-04-30T18:48:59.289Z,12.52
2019-04-30T18:51:36.481Z,12.20
2019-04-30T18:53:56.099Z,12.02
2019-04-30T18:56:23.548Z,12.09
2019-04-30T18:58:50.908Z,12.04
2019-04-30T19:01:18.457Z,12.07
2019-04-30T19:03:45.886Z,12.02
2019-04-30T19:06:23.870Z,12.19
2019-04-30T19:09:10.344Z,12.22
2019-04-30T19:11:49.360Z,11.94
2019-04-30T19:14:39.600Z,11.98
2019-04-30T19:17:25.618Z,11.91
2019-04-30T19:20:08.579Z,12.02
2019-04-30T19:22:36.804Z,11.97
2019-04-30T19:25:04.655Z,11.83
2019-04-30T19:27:32.139Z,11.86
2019-04-30T19:29:59.568Z,11.72
2019-04-30T19:32:30.266Z,11.61
2019-04-30T19:34:56.424Z,11.75
2019-04-30T19:37:23.862Z,11.88
2019-04-30T19:39:51.264Z,12.05
2019-04-30T19:42:18.812Z,12.09
2019-04-30T19:44:56.779Z,11.98
2019-04-30T19:47:16.280Z,11.89
2019-04-30T19:49:43.725Z,11.66
2019-04-30T19:52:11.835Z,11.69
2019-04-30T19:54:39.837Z,11.59
2019-04-30T19:57:07.250Z,11.57
2019-04-30T19:59:34.647Z,11.53
2019-04-30T20:02:02.059Z,11.41
2019-04-30T20:04:34.136Z,11.27
2019-04-30T20:06:59.170Z,11.16
2019-04-30T20:09:26.631Z,11.25
2019-04-30T20:11:56.760Z,11.09
2019-04-30T20:14:23.387Z,11.00
2019-04-30T20:16:50.892Z,11.13
2019-04-30T20:19:18.333Z,11.33
2019-04-30T20:21:53.099Z,11.45
2019-04-30T20:24:15.386Z,11.50
2019-04-30T20:26:42.847Z,11.45
2019-04-30T20:29:10.287Z,11.28
2019-04-30T20:31:38.679Z,11.01
2019-04-30T20:34:06.584Z,10.89
2019-04-30T20:36:36.409Z,10.86
2019-04-30T20:39:24.407Z,10.83
2019-04-30T20:41:52.882Z,10.78
2019-04-30T20:44:20.343Z,10.74
2019-04-30T20:46:49.084Z,10.82
2019-04-30T20:49:16.576Z,10.81
2019-04-30T20:51:53.474Z,10.88
2019-04-30T20:54:13.300Z,10.79
2019-04-30T20:56:40.769Z,10.71
2019-04-30T20:59:10.729Z,10.74
2019-04-30T21:01:39.204Z,10.71
2019-04-30T21:04:06.729Z,10.53
2019-04-30T21:06:34.182Z,10.51
2019-04-30T21:09:01.624Z,10.50
2019-04-30T21:11:29.072Z,10.44
2019-04-30T21:13:56.417Z,10.53
2019-04-30T21:16:23.861Z,10.45
2019-04-30T21:18:51.303Z,10.37
2019-04-30T21:21:20.499Z,10.27
2019-04-30T21:23:49.176Z,10.11
2019-04-30T21:26:16.656Z,10.01
2019-04-30T21:28:44.011Z,10.01
2019-04-30T21:31:29.518Z,10.05
2019-04-30T21:34:04.278Z,10.23
2019-04-30T21:36:31.851Z,10.31
2019-04-30T21:38:59.444Z,10.28
2019-04-30T21:41:26.920Z,10.29
2019-04-30T21:43:54.741Z,10.28
2019-04-30T21:46:22.217Z,10.15
2019-04-30T21:48:49.695Z,9.95
2019-04-30T21:51:19.125Z,9.74
2019-04-30T21:53:46.454Z,9.62
2019-04-30T21:56:13.884Z,9.59
2019-04-30T21:58:41.340Z,9.43
2019-04-30T22:01:25.106Z,9.35
2019-04-30T22:03:52.555Z,9.32
2019-04-30T22:06:19.948Z,9.35
2019-04-30T22:08:48.608Z,9.38
2019-04-30T22:11:16.264Z,9.35
2019-04-30T22:13:43.662Z,9.39
2019-04-30T22:16:11.111Z,9.37
2019-04-30T22:18:38.592Z,9.41
2019-04-30T22:21:06.085Z,9.38
2019-04-30T22:23:33.551Z,9.36
2019-04-30T22:26:01.015Z,9.51
2019-04-30T22:28:28.421Z,9.55
2019-04-30T22:30:55.986Z,9.62
2019-04-30T22:33:23.485Z,9.65
2019-04-30T22:36:02.135Z,9.59
2019-04-30T22:38:33.250Z,9.50
2019-04-30T22:41:00.739Z,9.36
2019-04-30T22:43:28.224Z,9.37
2019-04-30T22:46:00.778Z,9.38
2019-04-30T22:48:28.685Z,9.51
2019-04-30T22:50:56.300Z,9.39
2019-04-30T22:53:23.762Z,9.24
2019-04-30T22:55:51.199Z,9.09
2019-04-30T22:58:18.744Z,9.00
2019-04-30T23:00:46.803Z,8.92
2019-04-30T23:03:19.149Z,8.87
2019-04-30T23:05:46.637Z,8.80
2019-04-30T23:08:14.089Z,8.75
2019-04-30T23:10:41.534Z,8.70
2019-04-30T23:13:08.951Z,8.64
2019-04-30T23:15:36.353Z,8.57
2019-04-30T23:18:03.917Z,8.63
2019-04-30T23:20:31.374Z,8.59
2019-04-30T23:22:58.824Z,8.45
2019-04-30T23:25:26.174Z,8.63
2019-04-30T23:27:53.623Z,8.91
2019-04-30T23:30:21.053Z,8.85
2019-04-30T23:32:48.444Z,9.01
2019-04-30T23:35:15.979Z,8.95
2019-04-30T23:37:43.537Z,8.84
2019-04-30T23:40:29.117Z,8.71
2019-04-30T23:42:56.767Z,8.65
2019-04-30T23:45:24.482Z,8.60
2019-04-30T23:47:51.856Z,8.56
2019-04-30T23:50:19.373Z,8.51
2019-04-30T23:52:46.899Z,8.45
2019-04-30T23:55:14.445Z,8.42
2019-04-30T23:57:41.883Z,8.33
